Subpeak Weather - Last Hour


View Last Hour    View Last 24 Hours

Time
Avg. Air Temp
Dew Point
Avg. Rel Humidity
Avg. 2 Min Wind Speed
Max Gust Velocity
MGV Time
MGV Direction
Avg. Spot Wind Velocity
2014-10-31 16:25:000° C-4° C73%17 km/h20 km/h2014-10-31 16:24:00S13 km/h
2014-10-31 16:20:000° C-4° C73%16 km/h21 km/h2014-10-31 16:19:30S12 km/h
2014-10-31 16:15:00-0° C-4° C73%16 km/h22 km/h2014-10-31 16:12:00S17 km/h
2014-10-31 16:10:000° C-4° C73%16 km/h21 km/h2014-10-31 16:05:20S17 km/h
2014-10-31 16:05:00-0° C-4° C73%19 km/h25 km/h2014-10-31 16:02:00S21 km/h
2014-10-31 16:00:000° C-4° C73%18 km/h27 km/h2014-10-31 16:00:00S19 km/h
2014-10-31 15:55:000° C-4° C73%20 km/h22 km/h2014-10-31 15:53:40S19 km/h
2014-10-31 15:50:000° C-4° C73%18 km/h22 km/h2014-10-31 15:47:00S18 km/h
2014-10-31 15:45:00-0° C-4° C73%21 km/h23 km/h2014-10-31 15:42:00SE19 km/h
2014-10-31 15:40:000° C-4° C74%21 km/h23 km/h2014-10-31 15:39:40S20 km/h
2014-10-31 15:35:000° C-4° C74%18 km/h23 km/h2014-10-31 15:31:20S19 km/h
2014-10-31 15:30:00-0° C-4° C74%19 km/h22 km/h2014-10-31 15:27:50SE19 km/h
2014-10-31 15:25:000° C-4° C74%20 km/h23 km/h2014-10-31 15:24:00S19 km/h
2014-10-31 15:20:000° C-4° C74%19 km/h22 km/h2014-10-31 15:19:50S19 km/h
2014-10-31 15:15:00-0° C-4° C74%22 km/h24 km/h2014-10-31 15:13:40S22 km/h
2014-10-31 15:10:000° C-4° C74%22 km/h25 km/h2014-10-31 15:07:30S22 km/h
2014-10-31 15:05:000° C-4° C75%22 km/h28 km/h2014-10-31 15:02:50S23 km/h
2014-10-31 15:00:000° C-4° C75%25 km/h30 km/h2014-10-31 14:57:40S24 km/h
2014-10-31 14:55:000° C-4° C75%23 km/h27 km/h2014-10-31 14:50:10SW24 km/h
2014-10-31 14:50:00-0° C-4° C75%25 km/h27 km/h2014-10-31 14:50:00S24 km/h